createdAt,value
2022-11-18T00:04:26.479Z,13.73
2022-11-18T00:09:57.475Z,12.63
2022-11-18T00:15:21.785Z,11.83
2022-11-18T00:21:02.853Z,12.53
2022-11-18T00:26:30.684Z,14.23
2022-11-18T00:32:12.629Z,13.43
2022-11-18T00:37:37.144Z,12.23
2022-11-18T00:43:19.399Z,13.43
2022-11-18T00:48:46.396Z,14.83
2022-11-18T00:54:11.418Z,15.00
2022-11-18T00:59:43.509Z,14.87
2022-11-18T01:05:18.392Z,16.63
2022-11-18T01:10:42.340Z,16.27
2022-11-18T01:16:11.162Z,16.53
2022-11-18T01:21:42.217Z,17.57
2022-11-18T01:27:22.238Z,20.60
2022-11-18T01:32:47.218Z,17.10
2022-11-18T01:38:20.124Z,19.80
2022-11-18T01:43:58.753Z,18.83
2022-11-18T01:49:37.926Z,18.73
2022-11-18T01:55:10.619Z,20.03
2022-11-18T02:00:41.741Z,19.33
2022-11-18T02:06:24.292Z,20.03
2022-11-18T02:11:56.555Z,20.67
2022-11-18T02:17:35.003Z,18.50
2022-11-18T02:23:31.767Z,22.13
2022-11-18T02:29:14.660Z,18.67
2022-11-18T02:34:46.107Z,19.27
2022-11-18T02:40:20.531Z,20.10
2022-11-18T02:45:55.532Z,19.87
2022-11-18T02:51:24.996Z,22.97
2022-11-18T02:56:50.550Z,18.23
2022-11-18T03:02:22.850Z,20.60
2022-11-18T03:07:54.079Z,19.33
2022-11-18T03:13:32.510Z,21.40
2022-11-18T03:19:12.854Z,20.07
2022-11-18T03:24:56.849Z,19.37
2022-11-18T03:30:23.101Z,19.90
2022-11-18T03:35:56.632Z,21.53
2022-11-18T03:41:27.375Z,19.07
2022-11-18T03:46:56.333Z,21.50
2022-11-18T03:52:57.517Z,24.53
2022-11-18T03:58:30.138Z,20.63
2022-11-18T04:03:58.207Z,21.87
2022-11-18T04:09:32.668Z,21.33
2022-11-18T04:15:00.973Z,24.47
2022-11-18T04:20:28.571Z,20.20
2022-11-18T04:25:57.518Z,21.23
2022-11-18T04:31:43.541Z,22.73
2022-11-18T04:37:17.402Z,23.77
2022-11-18T04:42:45.765Z,19.73
2022-11-18T04:48:19.605Z,24.27
2022-11-18T04:53:52.185Z,27.50
2022-11-18T04:59:23.381Z,24.50
2022-11-18T05:04:47.531Z,28.67
2022-11-18T05:10:22.200Z,27.87
2022-11-18T05:15:54.738Z,29.03
2022-11-18T05:21:31.834Z,27.37
2022-11-18T05:27:26.000Z,27.27
2022-11-18T05:38:47.466Z,27.70
2022-11-18T05:44:21.429Z,31.07
2022-11-18T05:49:46.362Z,28.90
2022-11-18T05:55:14.355Z,29.83
2022-11-18T06:00:46.591Z,27.50
2022-11-18T06:06:16.784Z,27.13
2022-11-18T06:11:52.313Z,29.63
2022-11-18T06:17:30.542Z,25.73
2022-11-18T06:23:03.140Z,30.57
2022-11-18T06:28:31.365Z,26.93
2022-11-18T06:34:04.536Z,26.63
2022-11-18T06:39:37.959Z,28.87
2022-11-18T06:45:05.734Z,27.50
2022-11-18T06:50:38.645Z,28.13
2022-11-18T06:56:21.433Z,26.27
2022-11-18T07:01:50.629Z,27.03
2022-11-18T07:07:14.522Z,28.03
2022-11-18T07:12:44.858Z,30.77
2022-11-18T07:18:14.426Z,24.47
2022-11-18T07:23:58.779Z,26.80
2022-11-18T07:29:25.000Z,28.23
2022-11-18T07:34:50.128Z,28.77
2022-11-18T07:40:17.804Z,28.90
2022-11-18T07:45:45.306Z,27.00
2022-11-18T07:51:11.543Z,27.60
2022-11-18T07:56:35.146Z,30.27
2022-11-18T08:02:05.680Z,35.03
2022-11-18T08:07:34.219Z,32.37
2022-11-18T08:13:04.209Z,34.00
2022-11-18T08:18:32.141Z,30.03
2022-11-18T08:24:18.619Z,30.00
2022-11-18T08:29:44.869Z,33.60
2022-11-18T08:35:21.906Z,30.87
2022-11-18T08:40:55.999Z,34.73
2022-11-18T08:46:33.308Z,32.97
2022-11-18T08:52:02.926Z,30.40
2022-11-18T08:57:33.385Z,30.17
2022-11-18T09:03:11.209Z,33.17
2022-11-18T09:08:38.021Z,36.40
2022-11-18T09:19:51.211Z,33.27
2022-11-18T09:25:31.977Z,33.43
2022-11-18T09:31:14.590Z,36.73
2022-11-18T09:36:41.958Z,31.20
2022-11-18T09:42:29.713Z,31.53
2022-11-18T09:48:10.657Z,33.60
2022-11-18T09:53:37.772Z,31.70
2022-11-18T09:59:23.483Z,35.20
2022-11-18T10:05:12.846Z,33.70
2022-11-18T10:11:05.244Z,30.13
2022-11-18T10:16:47.478Z,29.13
2022-11-18T10:22:30.856Z,30.37
2022-11-18T10:27:56.344Z,27.63
2022-11-18T10:34:08.110Z,26.03
2022-11-18T10:39:51.091Z,27.67
2022-11-18T10:45:25.343Z,23.83
2022-11-18T10:50:59.905Z,24.20
2022-11-18T10:57:02.110Z,21.97
2022-11-18T11:02:44.972Z,20.53
2022-11-18T11:08:37.017Z,18.73
2022-11-18T11:14:41.224Z,12.33
2022-11-18T11:20:27.882Z,13.43
2022-11-18T11:32:02.742Z,9.80
2022-11-18T11:37:41.904Z,10.43
2022-11-18T11:43:37.978Z,10.00
2022-11-18T11:49:24.087Z,10.43
2022-11-18T11:55:12.239Z,10.00
2022-11-18T12:00:52.124Z,10.10
2022-11-18T12:06:33.821Z,9.23
2022-11-18T12:12:21.921Z,10.37
2022-11-18T12:17:59.215Z,14.37
2022-11-18T12:23:32.182Z,10.80
2022-11-18T12:29:19.203Z,10.47
2022-11-18T12:35:03.078Z,14.07
2022-11-18T12:40:51.784Z,13.67
2022-11-18T12:46:49.007Z,16.23
2022-11-18T12:52:56.939Z,18.07
2022-11-18T12:59:11.438Z,18.20
2022-11-18T13:04:47.588Z,17.47
2022-11-18T13:10:33.920Z,15.20
2022-11-18T13:16:19.697Z,18.30
2022-11-18T13:27:49.207Z,19.60
2022-11-18T13:33:35.854Z,19.37
2022-11-18T13:39:10.219Z,19.60
2022-11-18T13:44:46.062Z,18.90
2022-11-18T13:50:26.310Z,19.57
2022-11-18T13:55:57.174Z,18.37
2022-11-18T14:01:30.335Z,23.70
2022-11-18T14:07:25.674Z,23.70
2022-11-18T14:13:06.302Z,24.90
2022-11-18T14:18:39.570Z,21.93
2022-11-18T14:24:32.006Z,29.43
2022-11-18T14:30:01.556Z,24.50
2022-11-18T14:35:50.814Z,27.20
2022-11-18T14:42:17.631Z,23.37
2022-11-18T14:47:50.091Z,24.47
2022-11-18T14:53:19.000Z,25.40
2022-11-18T14:58:53.340Z,24.37
2022-11-18T15:04:35.664Z,26.10
2022-11-18T15:10:12.130Z,24.87
2022-11-18T15:15:47.142Z,26.73
2022-11-18T15:21:14.001Z,21.03
2022-11-18T15:32:44.022Z,21.57
2022-11-18T15:38:24.158Z,21.80
2022-11-18T15:43:50.465Z,20.50
2022-11-18T15:49:24.208Z,25.50
2022-11-18T15:54:50.381Z,23.77
2022-11-18T16:00:18.968Z,23.27
2022-11-18T16:05:58.963Z,21.97
2022-11-18T16:11:45.691Z,25.23
2022-11-18T16:17:08.907Z,26.23
2022-11-18T16:22:38.276Z,23.43
2022-11-18T16:33:48.877Z,30.03
2022-11-18T16:39:53.730Z,23.67
2022-11-18T16:45:22.695Z,22.00
2022-11-18T16:51:36.825Z,24.77
2022-11-18T16:57:06.703Z,22.83
2022-11-18T17:02:39.558Z,23.60
2022-11-18T17:08:12.877Z,22.40
2022-11-18T17:13:40.731Z,24.00
2022-11-18T17:19:12.060Z,24.33
2022-11-18T17:24:38.457Z,23.73
2022-11-18T17:30:05.662Z,24.90
2022-11-18T17:35:34.117Z,23.37
2022-11-18T17:41:06.367Z,23.13
2022-11-18T17:46:53.937Z,22.70
2022-11-18T17:52:29.067Z,23.07
2022-11-18T17:57:59.394Z,21.20
2022-11-18T18:03:27.763Z,19.50
2022-11-18T18:09:00.550Z,20.87
2022-11-18T18:14:27.989Z,16.23
2022-11-18T18:19:59.565Z,17.50
2022-11-18T18:31:12.810Z,19.60
2022-11-18T18:36:45.312Z,13.20
2022-11-18T18:42:08.470Z,12.57
2022-11-18T18:47:36.653Z,12.37
2022-11-18T18:53:09.724Z,12.03
2022-11-18T18:58:46.843Z,13.33
2022-11-18T19:04:19.986Z,10.47
2022-11-18T19:09:58.712Z,10.60
2022-11-18T19:15:36.419Z,9.53
2022-11-18T19:21:16.618Z,9.77
2022-11-18T19:26:54.344Z,7.30
2022-11-18T19:32:21.372Z,9.97
2022-11-18T19:38:00.669Z,7.60
2022-11-18T19:43:34.664Z,8.30
2022-11-18T19:49:02.930Z,7.43
2022-11-18T19:54:33.416Z,7.53
2022-11-18T20:00:36.102Z,7.30
2022-11-18T20:06:06.087Z,6.10
2022-11-18T20:11:34.869Z,6.60
2022-11-18T20:17:09.502Z,7.20
2022-11-18T20:22:58.746Z,7.20
2022-11-18T20:28:47.363Z,7.20
2022-11-18T20:34:17.242Z,5.60
2022-11-18T20:40:02.229Z,7.70
2022-11-18T20:45:31.675Z,6.83
2022-11-18T20:51:09.881Z,7.20
2022-11-18T20:56:41.378Z,6.20
2022-11-18T21:02:16.278Z,6.83
2022-11-18T21:07:51.523Z,5.93
2022-11-18T21:13:36.758Z,6.27
2022-11-18T21:19:03.444Z,6.00
2022-11-18T21:24:36.969Z,5.87
2022-11-18T21:30:22.168Z,5.23
2022-11-18T21:35:49.400Z,7.03
2022-11-18T21:47:13.848Z,5.67
2022-11-18T21:52:45.821Z,7.23
2022-11-18T21:58:18.562Z,6.67
2022-11-18T22:03:55.213Z,7.83
2022-11-18T22:09:19.064Z,7.50
2022-11-18T22:15:02.824Z,8.40
2022-11-18T22:20:32.317Z,7.77
2022-11-18T22:32:05.391Z,8.03
2022-11-18T22:38:01.933Z,6.27
2022-11-18T22:43:37.508Z,7.87
2022-11-18T22:49:03.767Z,5.33
2022-11-18T22:54:40.177Z,6.10
2022-11-18T23:00:21.526Z,6.67
2022-11-18T23:05:51.359Z,6.63
2022-11-18T23:11:40.438Z,6.23
2022-11-18T23:17:10.171Z,6.87
2022-11-18T23:22:37.485Z,6.60
2022-11-18T23:28:18.766Z,6.13
2022-11-18T23:33:44.108Z,5.87
2022-11-18T23:39:22.784Z,5.60
2022-11-18T23:44:48.864Z,7.60
2022-11-18T23:50:24.242Z,6.33
2022-11-18T23:55:48.185Z,7.17
